Time;durP1;ratioP1;P1;durP2;ratioP2;P2;SDS_P1;SDS_P2;PMS_P1;PMS_P2;Temp;Humidity;BMP_temperature;BMP_pressure;BME280_temperature;BME280_humidity;BME280_pressure;Samples;Min_cycle;Max_cycle;Signal;HPM_P1;HPM_P2
2023/08/07 00:00:58;;;;;;;2.05;0.85;;;;;;;;;;5007697;28;20058;-81
2023/08/07 00:03:24;;;;;;;1.15;0.70;;;;;;;;;;5006474;28;20042;-83
2023/08/07 00:05:51;;;;;;;1.05;0.73;;;;;;;;;;5026348;28;20070;-83
2023/08/07 00:08:17;;;;;;;1.60;0.60;;;;;;;;;;5015017;28;20161;-83
2023/08/07 00:10:42;;;;;;;0.80;0.50;;;;;;;;;;5008782;28;20478;-81
2023/08/07 00:13:08;;;;;;;0.93;0.57;;;;;;;;;;5014976;28;20544;-81
2023/08/07 00:15:34;;;;;;;1.85;0.52;;;;;;;;;;5042068;28;20080;-81
2023/08/07 00:18:00;;;;;;;0.82;0.60;;;;;;;;;;5014799;28;20030;-81
2023/08/07 00:20:25;;;;;;;0.70;0.60;;;;;;;;;;5011492;28;20046;-82
2023/08/07 00:22:51;;;;;;;1.08;0.63;;;;;;;;;;5007243;28;20045;-82
2023/08/07 00:25:16;;;;;;;2.45;0.50;;;;;;;;;;5016119;28;20037;-84
2023/08/07 00:27:42;;;;;;;0.70;0.55;;;;;;;;;;5006036;28;20053;-82
2023/08/07 00:30:08;;;;;;;0.70;0.55;;;;;;;;;;5027694;28;20026;-81
2023/08/07 00:32:33;;;;;;;0.70;0.40;;;;;;;;;;5026487;28;20500;-81
2023/08/07 00:35:00;;;;;;;0.80;0.50;;;;;;;;;;5017831;28;20069;-81
2023/08/07 00:37:25;;;;;;;0.68;0.40;;;;;;;;;;5011770;28;20056;-81
2023/08/07 00:39:51;;;;;;;1.38;0.57;;;;;;;;;;5009532;28;20428;-84
2023/08/07 00:42:16;;;;;;;1.90;1.08;;;;;;;;;;5027167;28;20030;-84
2023/08/07 00:44:42;;;;;;;0.90;0.50;;;;;;;;;;5015236;28;20506;-83
2023/08/07 00:47:07;;;;;;;2.22;0.60;;;;;;;;;;5016497;28;20033;-82
2023/08/07 00:49:33;;;;;;;1.15;0.60;;;;;;;;;;5017637;28;20022;-82
2023/08/07 00:51:59;;;;;;;0.98;0.60;;;;;;;;;;5018643;28;20041;-81
2023/08/07 00:54:25;;;;;;;3.45;0.40;;;;;;;;;;5018514;28;20041;-81
2023/08/07 00:56:51;;;;;;;0.80;0.45;;;;;;;;;;5017489;28;20512;-83
2023/08/07 00:59:18;;;;;;;2.85;0.50;;;;;;;;;;5007846;28;20034;-84
2023/08/07 01:01:44;;;;;;;0.63;0.40;;;;;;;;;;5012721;28;20018;-83
2023/08/07 01:04:09;;;;;;;0.30;0.30;;;;;;;;;;5015856;28;20065;-81
2023/08/07 01:06:35;;;;;;;0.25;0.22;;;;;;;;;;5014669;28;20104;-81
2023/08/07 01:09:00;;;;;;;0.68;0.40;;;;;;;;;;5015991;28;20085;-81
2023/08/07 01:11:29;;;;;;;0.93;0.20;;;;;;;;;;5020355;28;20030;-81
2023/08/07 01:14:05;;;;;;;0.57;0.40;;;;;;;;;;5041360;28;20046;-82
2023/08/07 01:16:48;;;;;;;0.40;0.40;;;;;;;;;;5013412;28;20122;-83
2023/08/07 01:19:24;;;;;;;0.90;0.40;;;;;;;;;;5028563;28;20034;-81
2023/08/07 01:22:03;;;;;;;2.75;0.30;;;;;;;;;;5018863;28;20041;-81
2023/08/07 01:24:28;;;;;;;0.40;0.30;;;;;;;;;;5024997;28;20560;-81
2023/08/07 01:27:01;;;;;;;0.35;0.20;;;;;;;;;;5016935;28;20110;-81
2023/08/07 01:29:36;;;;;;;1.90;0.60;;;;;;;;;;5016883;28;20026;-84
2023/08/07 01:32:06;;;;;;;2.40;0.55;;;;;;;;;;5026051;28;20096;-83
2023/08/07 01:34:34;;;;;;;0.52;0.47;;;;;;;;;;5022561;28;20026;-85
2023/08/07 01:37:02;;;;;;;0.50;0.30;;;;;;;;;;5016877;28;20026;-85
2023/08/07 01:39:28;;;;;;;0.70;0.57;;;;;;;;;;5016224;28;20048;-81
2023/08/07 01:41:55;;;;;;;0.60;0.30;;;;;;;;;;5016355;28;20089;-83
2023/08/07 01:44:20;;;;;;;0.57;0.40;;;;;;;;;;5021928;28;20026;-82
2023/08/07 01:46:46;;;;;;;0.30;0.30;;;;;;;;;;5020292;28;20036;-81
2023/08/07 01:49:11;;;;;;;0.50;0.30;;;;;;;;;;5021014;28;20491;-81
2023/08/07 01:51:37;;;;;;;1.10;0.40;;;;;;;;;;5020768;28;20030;-84
2023/08/07 01:54:02;;;;;;;0.75;0.60;;;;;;;;;;5003450;28;20084;-85
2023/08/07 01:56:28;;;;;;;0.43;0.40;;;;;;;;;;5020501;28;20034;-83
2023/08/07 01:58:53;;;;;;;0.95;0.38;;;;;;;;;;5017963;28;20022;-81
2023/08/07 02:01:19;;;;;;;0.35;0.30;;;;;;;;;;5040536;28;20026;-81
2023/08/07 02:03:44;;;;;;;0.50;0.40;;;;;;;;;;5045821;28;20026;-81
2023/08/07 02:06:10;;;;;;;0.60;0.35;;;;;;;;;;5019163;28;20039;-81
2023/08/07 02:08:35;;;;;;;0.30;0.30;;;;;;;;;;5008678;28;20018;-84
2023/08/07 02:11:02;;;;;;;0.20;0.20;;;;;;;;;;5018886;28;20042;-83
2023/08/07 02:13:28;;;;;;;0.30;0.30;;;;;;;;;;5010443;28;20156;-84
2023/08/07 02:15:53;;;;;;;0.57;0.30;;;;;;;;;;5020040;28;20379;-81
2023/08/07 02:18:19;;;;;;;0.38;0.30;;;;;;;;;;5016118;28;20385;-83
2023/08/07 02:20:45;;;;;;;0.65;0.40;;;;;;;;;;5019202;28;20036;-81
2023/08/07 02:23:11;;;;;;;0.40;0.20;;;;;;;;;;5013069;28;20039;-83
2023/08/07 02:25:36;;;;;;;0.73;0.40;;;;;;;;;;5019504;28;20029;-83
2023/08/07 02:28:02;;;;;;;0.40;0.30;;;;;;;;;;5012195;28;20041;-84
2023/08/07 02:30:27;;;;;;;0.47;0.30;;;;;;;;;;5026688;28;20070;-84
2023/08/07 02:32:53;;;;;;;0.50;0.40;;;;;;;;;;5011820;28;20057;-82
2023/08/07 02:35:20;;;;;;;0.35;0.20;;;;;;;;;;5017993;28;20038;-83
2023/08/07 02:37:45;;;;;;;0.68;0.45;;;;;;;;;;5016863;28;20071;-82
2023/08/07 02:40:15;;;;;;;1.55;0.70;;;;;;;;;;5002758;28;20276;-81
2023/08/07 02:42:42;;;;;;;0.43;0.40;;;;;;;;;;5019079;28;20042;-82
2023/08/07 02:45:08;;;;;;;0.77;0.45;;;;;;;;;;5031182;28;20039;-84
2023/08/07 02:47:33;;;;;;;1.27;0.65;;;;;;;;;;5019014;28;20022;-84
2023/08/07 02:49:59;;;;;;;1.05;0.55;;;;;;;;;;5016032;28;20477;-84
2023/08/07 02:52:25;;;;;;;2.33;0.70;;;;;;;;;;5017806;28;20029;-82
2023/08/07 02:54:50;;;;;;;0.70;0.50;;;;;;;;;;5033715;28;20034;-82
2023/08/07 02:57:15;;;;;;;1.15;0.65;;;;;;;;;;5019750;28;20034;-81
2023/08/07 02:59:41;;;;;;;1.50;0.70;;;;;;;;;;5017997;28;20030;-82
2023/08/07 03:02:06;;;;;;;1.95;0.88;;;;;;;;;;5032207;28;20034;-84
2023/08/07 03:04:32;;;;;;;3.00;0.85;;;;;;;;;;5021460;28;20037;-84
2023/08/07 03:06:57;;;;;;;1.02;0.70;;;;;;;;;;5021331;28;20038;-83
2023/08/07 03:09:23;;;;;;;1.77;0.80;;;;;;;;;;5022728;28;20029;-82
2023/08/07 03:11:48;;;;;;;2.70;0.80;;;;;;;;;;5023486;28;20026;-83
2023/08/07 03:14:14;;;;;;;1.38;0.90;;;;;;;;;;5020706;28;20497;-82
2023/08/07 03:16:39;;;;;;;2.78;0.63;;;;;;;;;;5019179;28;20033;-82
2023/08/07 03:19:05;;;;;;;1.33;0.70;;;;;;;;;;5023998;28;20032;-83
2023/08/07 03:21:31;;;;;;;1.25;0.80;;;;;;;;;;5031112;28;20011;-84
2023/08/07 03:23:56;;;;;;;1.42;0.90;;;;;;;;;;5019868;28;20029;-84
2023/08/07 03:26:22;;;;;;;1.10;0.80;;;;;;;;;;5020027;28;20021;-82
2023/08/07 03:28:48;;;;;;;2.75;0.77;;;;;;;;;;5015342;28;20030;-82
2023/08/07 03:31:14;;;;;;;2.67;0.90;;;;;;;;;;5034074;28;20033;-82
2023/08/07 03:33:40;;;;;;;1.90;0.90;;;;;;;;;;5040238;28;20136;-82
2023/08/07 03:36:05;;;;;;;1.27;0.77;;;;;;;;;;5020173;28;20038;-82
2023/08/07 03:38:32;;;;;;;1.20;0.98;;;;;;;;;;5017447;28;20049;-84
2023/08/07 03:40:58;;;;;;;1.33;0.82;;;;;;;;;;5023176;28;20022;-84
2023/08/07 03:43:24;;;;;;;1.65;0.75;;;;;;;;;;5039005;28;20030;-83
2023/08/07 03:45:58;;;;;;;1.58;0.80;;;;;;;;;;5019925;28;20033;-82
2023/08/07 03:48:27;;;;;;;1.30;0.90;;;;;;;;;;5020306;28;20033;-82
2023/08/07 03:50:52;;;;;;;2.67;0.95;;;;;;;;;;5006873;28;20477;-82
2023/08/07 03:53:18;;;;;;;2.08;0.80;;;;;;;;;;5021799;28;20037;-82
2023/08/07 03:55:51;;;;;;;1.92;0.95;;;;;;;;;;5023827;28;20517;-82
2023/08/07 03:58:18;;;;;;;1.90;0.80;;;;;;;;;;5040935;28;20026;-82
2023/08/07 04:00:44;;;;;;;3.13;1.05;;;;;;;;;;5024015;28;20040;-85
2023/08/07 04:03:10;;;;;;;2.38;0.98;;;;;;;;;;5022897;28;20110;-84
2023/08/07 04:05:35;;;;;;;3.30;1.00;;;;;;;;;;5021331;28;20033;-83
2023/08/07 04:08:01;;;;;;;2.03;1.10;;;;;;;;;;5008979;28;20097;-82
2023/08/07 04:10:26;;;;;;;1.88;0.90;;;;;;;;;;5029540;28;20040;-82
2023/08/07 04:12:52;;;;;;;2.05;1.00;;;;;;;;;;5005839;28;20469;-83
2023/08/07 04:15:17;;;;;;;1.45;1.00;;;;;;;;;;5038124;28;20109;-82
2023/08/07 04:17:43;;;;;;;2.38;0.90;;;;;;;;;;5026227;28;20022;-84
2023/08/07 04:20:10;;;;;;;2.55;1.00;;;;;;;;;;5014404;28;20041;-84
2023/08/07 04:22:35;;;;;;;2.35;1.00;;;;;;;;;;5018834;28;20046;-85
2023/08/07 04:25:01;;;;;;;1.40;0.80;;;;;;;;;;5020304;28;20034;-83
2023/08/07 04:27:27;;;;;;;1.95;0.88;;;;;;;;;;5021105;28;20042;-82
2023/08/07 04:29:52;;;;;;;2.42;1.00;;;;;;;;;;5033224;28;20038;-83
2023/08/07 04:32:19;;;;;;;0.95;0.82;;;;;;;;;;5018277;28;20046;-82
2023/08/07 04:34:44;;;;;;;2.47;0.90;;;;;;;;;;5023316;28;20033;-84
2023/08/07 04:37:10;;;;;;;1.52;0.93;;;;;;;;;;5016256;28;20048;-85
2023/08/07 04:39:36;;;;;;;1.08;0.90;;;;;;;;;;5016773;28;20030;-84
2023/08/07 04:42:02;;;;;;;1.38;0.93;;;;;;;;;;5030127;28;20045;-83
2023/08/07 04:44:27;;;;;;;2.35;0.93;;;;;;;;;;5021725;28;20041;-82
2023/08/07 04:46:53;;;;;;;2.47;1.10;;;;;;;;;;5034234;28;20034;-84
2023/08/07 04:49:18;;;;;;;1.83;0.90;;;;;;;;;;5034177;28;20049;-83
2023/08/07 04:51:44;;;;;;;3.92;0.95;;;;;;;;;;5020987;28;20034;-82
2023/08/07 04:54:09;;;;;;;1.88;0.90;;;;;;;;;;5021099;28;20189;-84
2023/08/07 04:56:35;;;;;;;1.70;0.93;;;;;;;;;;5021714;28;20120;-82
2023/08/07 04:59:01;;;;;;;2.35;0.95;;;;;;;;;;5021485;28;20026;-84
2023/08/07 05:01:27;;;;;;;1.83;0.90;;;;;;;;;;5025970;28;20045;-82
2023/08/07 05:03:52;;;;;;;3.45;1.20;;;;;;;;;;5027163;28;20049;-82
2023/08/07 05:06:19;;;;;;;1.35;1.00;;;;;;;;;;5014504;28;20037;-83
2023/08/07 05:08:44;;;;;;;2.60;1.10;;;;;;;;;;5014833;28;20055;-82
2023/08/07 05:11:10;;;;;;;3.25;1.20;;;;;;;;;;5025163;28;20511;-84
2023/08/07 05:13:35;;;;;;;1.55;0.90;;;;;;;;;;5026077;28;20429;-84
2023/08/07 05:16:01;;;;;;;1.98;0.93;;;;;;;;;;5015426;28;20030;-85
2023/08/07 05:18:26;;;;;;;2.90;1.20;;;;;;;;;;5025321;28;20029;-82
2023/08/07 05:20:52;;;;;;;1.50;1.00;;;;;;;;;;5036534;28;20128;-83
2023/08/07 05:23:17;;;;;;;2.35;1.23;;;;;;;;;;5020201;28;20048;-82
2023/08/07 05:25:46;;;;;;;1.80;1.20;;;;;;;;;;5018260;28;20038;-82
2023/08/07 05:28:12;;;;;;;1.23;0.95;;;;;;;;;;5016271;28;20045;-84
2023/08/07 05:30:38;;;;;;;1.83;1.10;;;;;;;;;;5017247;28;20034;-83
2023/08/07 05:33:03;;;;;;;2.30;1.10;;;;;;;;;;5023210;28;20075;-84
2023/08/07 05:35:29;;;;;;;1.98;1.15;;;;;;;;;;5019567;28;20049;-83
2023/08/07 05:37:54;;;;;;;2.47;1.15;;;;;;;;;;5019593;28;20042;-82
2023/08/07 05:40:20;;;;;;;3.60;1.10;;;;;;;;;;5025213;28;20037;-83
2023/08/07 05:42:45;;;;;;;2.83;1.20;;;;;;;;;;5029813;28;20037;-82
2023/08/07 05:45:11;;;;;;;2.42;1.20;;;;;;;;;;5019038;28;20034;-83
2023/08/07 05:47:36;;;;;;;3.25;1.27;;;;;;;;;;5024887;28;20068;-85
2023/08/07 05:50:02;;;;;;;2.80;1.10;;;;;;;;;;5021815;28;20053;-83
2023/08/07 05:52:28;;;;;;;2.17;1.20;;;;;;;;;;5024383;28;20044;-82
2023/08/07 05:54:53;;;;;;;4.18;1.10;;;;;;;;;;5023897;28;20503;-82
2023/08/07 05:57:19;;;;;;;1.45;0.98;;;;;;;;;;5023013;28;20037;-84
2023/08/07 05:59:44;;;;;;;3.10;1.00;;;;;;;;;;5024126;28;20105;-82
2023/08/07 06:02:13;;;;;;;2.33;1.05;;;;;;;;;;5025229;28;20128;-82
2023/08/07 06:04:38;;;;;;;2.80;1.27;;;;;;;;;;5025863;28;20049;-83
2023/08/07 06:07:05;;;;;;;2.13;1.02;;;;;;;;;;5025763;28;20052;-83
2023/08/07 06:09:30;;;;;;;2.17;1.00;;;;;;;;;;5024174;28;20511;-83
2023/08/07 06:11:56;;;;;;;2.20;0.98;;;;;;;;;;5020585;28;20030;-82
2023/08/07 06:14:21;;;;;;;2.20;1.02;;;;;;;;;;5020852;28;20034;-83
2023/08/07 06:16:47;;;;;;;1.42;1.05;;;;;;;;;;5016353;28;20131;-81
2023/08/07 06:19:12;;;;;;;2.97;1.13;;;;;;;;;;5017040;28;20038;-82
2023/08/07 06:21:38;;;;;;;3.10;1.38;;;;;;;;;;5021441;28;20026;-84
2023/08/07 06:24:03;;;;;;;2.28;1.20;;;;;;;;;;5017788;28;20433;-82
2023/08/07 06:26:29;;;;;;;1.58;1.02;;;;;;;;;;5011953;28;20057;-82
2023/08/07 06:28:54;;;;;;;2.17;0.98;;;;;;;;;;5014911;28;20036;-82
2023/08/07 06:31:20;;;;;;;1.63;1.00;;;;;;;;;;5024457;28;20101;-82
2023/08/07 06:33:45;;;;;;;3.08;1.17;;;;;;;;;;5016750;28;20086;-81
2023/08/07 06:36:11;;;;;;;1.65;1.17;;;;;;;;;;5017026;28;20053;-81
2023/08/07 06:38:36;;;;;;;2.22;1.10;;;;;;;;;;5015828;28;20030;-83
2023/08/07 06:41:02;;;;;;;3.90;1.23;;;;;;;;;;5023792;28;20034;-83
2023/08/07 06:43:28;;;;;;;1.83;1.00;;;;;;;;;;5020679;28;20156;-84
2023/08/07 06:45:55;;;;;;;2.50;1.10;;;;;;;;;;5019400;28;20049;-82
2023/08/07 06:48:20;;;;;;;2.42;1.35;;;;;;;;;;5023081;28;20105;-82
2023/08/07 06:50:50;;;;;;;2.53;1.20;;;;;;;;;;5019367;28;20088;-81
2023/08/07 06:53:16;;;;;;;1.73;1.20;;;;;;;;;;5015682;28;20041;-81
2023/08/07 06:55:42;;;;;;;3.85;1.10;;;;;;;;;;5023055;28;20068;-82
2023/08/07 06:58:08;;;;;;;3.30;1.35;;;;;;;;;;5023412;28;20083;-82
2023/08/07 07:00:35;;;;;;;2.38;1.08;;;;;;;;;;5037715;28;20057;-84
2023/08/07 07:03:01;;;;;;;2.38;1.10;;;;;;;;;;5026356;28;20517;-82
2023/08/07 07:05:27;;;;;;;3.10;1.02;;;;;;;;;;5022421;28;20036;-82
2023/08/07 07:07:54;;;;;;;2.95;1.20;;;;;;;;;;5023093;28;20033;-81
2023/08/07 07:10:20;;;;;;;1.30;0.90;;;;;;;;;;5022831;28;20038;-81
2023/08/07 07:12:45;;;;;;;3.03;1.13;;;;;;;;;;5022685;28;20048;-82
2023/08/07 07:15:11;;;;;;;2.85;1.02;;;;;;;;;;5021097;28;20539;-82
2023/08/07 07:17:36;;;;;;;2.10;1.20;;;;;;;;;;5021093;28;20113;-83
2023/08/07 07:20:02;;;;;;;2.65;1.13;;;;;;;;;;5020077;28;20034;-83
2023/08/07 07:22:28;;;;;;;3.65;1.00;;;;;;;;;;5021626;28;20038;-82
2023/08/07 07:24:54;;;;;;;2.10;1.10;;;;;;;;;;5036448;28;20034;-82
2023/08/07 07:27:21;;;;;;;3.78;1.02;;;;;;;;;;5014535;28;20104;-81
2023/08/07 07:29:47;;;;;;;2.42;1.30;;;;;;;;;;5001549;28;20041;-82
2023/08/07 07:32:13;;;;;;;2.30;1.10;;;;;;;;;;5022016;28;20030;-81
2023/08/07 07:34:38;;;;;;;3.33;1.20;;;;;;;;;;5013761;28;20054;-82
2023/08/07 07:37:04;;;;;;;2.72;1.15;;;;;;;;;;5021383;28;20064;-83
2023/08/07 07:39:30;;;;;;;2.35;1.10;;;;;;;;;;5013629;28;20394;-83
2023/08/07 07:41:55;;;;;;;1.55;0.90;;;;;;;;;;5026238;28;20037;-81
2023/08/07 07:44:21;;;;;;;1.42;0.90;;;;;;;;;;5018221;28;20048;-82
2023/08/07 07:46:46;;;;;;;3.38;1.20;;;;;;;;;;5017945;28;20058;-82
2023/08/07 07:49:12;;;;;;;2.08;1.17;;;;;;;;;;5018581;28;20041;-83
2023/08/07 07:51:37;;;;;;;2.40;1.20;;;;;;;;;;5021210;28;20040;-82
2023/08/07 07:54:03;;;;;;;3.92;1.17;;;;;;;;;;5034525;28;20084;-83
2023/08/07 07:56:28;;;;;;;1.60;1.00;;;;;;;;;;5021167;28;20686;-83
2023/08/07 07:58:54;;;;;;;3.33;1.08;;;;;;;;;;5020857;28;20026;-81
2023/08/07 08:01:19;;;;;;;2.22;1.00;;;;;;;;;;5023283;28;20034;-81
2023/08/07 08:03:44;;;;;;;1.88;1.10;;;;;;;;;;5005531;28;20378;-81
2023/08/07 08:06:13;;;;;;;2.67;1.10;;;;;;;;;;5021897;28;20239;-81
2023/08/07 08:08:39;;;;;;;1.65;1.10;;;;;;;;;;5018130;28;20052;-82
2023/08/07 08:11:04;;;;;;;2.00;1.08;;;;;;;;;;5021847;28;20080;-85
2023/08/07 08:13:30;;;;;;;1.83;1.10;;;;;;;;;;5013155;28;20030;-82
2023/08/07 08:15:56;;;;;;;1.73;0.98;;;;;;;;;;5026967;28;20046;-82
2023/08/07 08:18:21;;;;;;;4.35;1.10;;;;;;;;;;5015440;28;20032;-82
2023/08/07 08:20:47;;;;;;;1.67;0.90;;;;;;;;;;5019519;28;20121;-83
2023/08/07 08:23:12;;;;;;;1.75;1.00;;;;;;;;;;5013054;28;20034;-81
2023/08/07 08:25:37;;;;;;;1.55;1.02;;;;;;;;;;5021013;28;20037;-82
2023/08/07 08:28:03;;;;;;;1.23;0.90;;;;;;;;;;5032383;28;20033;-83
2023/08/07 08:30:29;;;;;;;3.90;1.17;;;;;;;;;;5015259;28;20044;-83
2023/08/07 08:32:55;;;;;;;2.95;1.23;;;;;;;;;;5014699;28;20028;-82
2023/08/07 08:35:20;;;;;;;2.50;0.80;;;;;;;;;;5011269;28;20030;-82
2023/08/07 08:37:46;;;;;;;3.55;1.27;;;;;;;;;;5014621;28;20049;-82
2023/08/07 08:40:19;;;;;;;2.17;1.10;;;;;;;;;;5022875;28;20034;-82
2023/08/07 08:42:45;;;;;;;2.25;1.17;;;;;;;;;;5018449;28;20042;-81
2023/08/07 08:45:13;;;;;;;2.20;1.15;;;;;;;;;;5019256;28;20064;-83
2023/08/07 08:47:39;;;;;;;1.50;1.10;;;;;;;;;;5021395;28;20093;-83
2023/08/07 08:50:08;;;;;;;2.30;1.10;;;;;;;;;;5008248;28;20109;-82
2023/08/07 08:52:37;;;;;;;4.18;1.10;;;;;;;;;;5021746;28;20042;-83
2023/08/07 08:55:03;;;;;;;2.75;1.00;;;;;;;;;;5022122;28;20065;-81
2023/08/07 08:57:29;;;;;;;2.17;1.10;;;;;;;;;;5024087;28;20068;-82
2023/08/07 08:59:56;;;;;;;1.70;1.00;;;;;;;;;;5015990;28;20109;-81
2023/08/07 09:02:22;;;;;;;1.95;1.13;;;;;;;;;;5016608;28;20042;-82
2023/08/07 09:04:48;;;;;;;2.25;1.25;;;;;;;;;;5020778;28;20460;-83
2023/08/07 09:07:16;;;;;;;2.60;1.20;;;;;;;;;;5015869;28;20057;-82
2023/08/07 09:09:44;;;;;;;3.92;1.30;;;;;;;;;;5014953;28;20042;-83
2023/08/07 09:12:23;;;;;;;2.95;1.20;;;;;;;;;;5051077;28;20126;-84
2023/08/07 09:14:54;;;;;;;2.00;1.10;;;;;;;;;;5022844;28;20038;-83
2023/08/07 09:17:35;;;;;;;2.65;1.10;;;;;;;;;;5023866;28;20046;-84
2023/08/07 09:20:00;;;;;;;2.25;1.17;;;;;;;;;;5020767;28;20058;-83
2023/08/07 09:22:26;;;;;;;1.50;0.98;;;;;;;;;;5023930;28;20037;-81
2023/08/07 09:24:52;;;;;;;2.17;1.20;;;;;;;;;;5024209;28;20033;-82
2023/08/07 09:27:17;;;;;;;3.25;1.17;;;;;;;;;;5024070;28;20413;-82
2023/08/07 09:29:44;;;;;;;1.83;1.30;;;;;;;;;;5023350;28;20068;-82
2023/08/07 09:32:12;;;;;;;1.95;1.05;;;;;;;;;;5015375;28;20042;-83
2023/08/07 09:34:41;;;;;;;1.58;1.00;;;;;;;;;;5020731;28;20113;-83
2023/08/07 09:37:11;;;;;;;3.08;1.15;;;;;;;;;;5020020;28;20029;-83
2023/08/07 09:39:37;;;;;;;2.60;1.02;;;;;;;;;;5015780;28;20042;-81
2023/08/07 09:42:03;;;;;;;1.65;1.10;;;;;;;;;;5011235;28;20029;-80
2023/08/07 09:44:38;;;;;;;4.57;1.20;;;;;;;;;;5027572;28;20030;-82
2023/08/07 09:47:14;;;;;;;1.73;1.10;;;;;;;;;;5020014;28;20525;-81
2023/08/07 09:49:40;;;;;;;2.13;1.23;;;;;;;;;;5017944;28;20045;-81
2023/08/07 09:52:07;;;;;;;3.78;1.20;;;;;;;;;;5018564;28;20045;-80
2023/08/07 09:54:33;;;;;;;1.90;1.13;;;;;;;;;;5024588;28;20134;-82
2023/08/07 09:57:01;;;;;;;1.58;1.20;;;;;;;;;;5027211;28;20052;-82
2023/08/07 09:59:27;;;;;;;1.92;1.10;;;;;;;;;;5025021;28;20034;-83
2023/08/07 10:01:54;;;;;;;2.67;1.20;;;;;;;;;;5022755;28;20038;-80
2023/08/07 10:04:20;;;;;;;3.33;1.20;;;;;;;;;;5019898;28;20046;-82
2023/08/07 10:06:46;;;;;;;3.40;1.27;;;;;;;;;;5009080;28;20077;-81
2023/08/07 10:09:12;;;;;;;2.08;1.13;;;;;;;;;;5024723;28;20038;-81
2023/08/07 10:11:40;;;;;;;2.05;1.20;;;;;;;;;;5024702;28;20038;-83
2023/08/07 10:14:05;;;;;;;2.40;1.15;;;;;;;;;;5019300;28;20034;-81
2023/08/07 10:16:32;;;;;;;1.77;1.13;;;;;;;;;;5027497;28;20044;-82
2023/08/07 10:18:57;;;;;;;1.80;1.08;;;;;;;;;;5038496;28;20045;-82
2023/08/07 10:21:24;;;;;;;2.83;1.20;;;;;;;;;;5011681;28;20030;-80
2023/08/07 10:23:53;;;;;;;3.38;1.48;;;;;;;;;;5022255;28;20042;-82
2023/08/07 10:26:22;;;;;;;2.42;1.20;;;;;;;;;;5016899;28;20058;-80
2023/08/07 10:28:51;;;;;;;1.48;1.00;;;;;;;;;;5022846;28;20100;-83
2023/08/07 10:31:17;;;;;;;1.50;1.20;;;;;;;;;;5013669;28;20080;-81
2023/08/07 10:33:43;;;;;;;1.40;1.08;;;;;;;;;;5027929;28;20505;-82
2023/08/07 10:36:10;;;;;;;1.88;1.17;;;;;;;;;;5019982;28;20030;-81
2023/08/07 10:38:35;;;;;;;2.20;1.23;;;;;;;;;;5017003;28;20042;-83
2023/08/07 10:41:08;;;;;;;1.98;1.33;;;;;;;;;;5011409;28;20520;-81
2023/08/07 10:43:39;;;;;;;10.98;1.85;;;;;;;;;;5013528;28;20066;-81
2023/08/07 10:46:21;;;;;;;3.40;1.20;;;;;;;;;;5013592;28;20094;-82
2023/08/07 10:48:53;;;;;;;3.65;1.52;;;;;;;;;;5016884;28;20070;-81
2023/08/07 10:51:18;;;;;;;1.88;1.13;;;;;;;;;;5018953;28;20106;-83
2023/08/07 10:53:48;;;;;;;2.38;1.20;;;;;;;;;;5021600;28;20030;-82
2023/08/07 10:56:31;;;;;;;2.58;1.30;;;;;;;;;;5022812;28;20033;-82
2023/08/07 10:58:57;;;;;;;1.95;1.10;;;;;;;;;;5021521;28;20033;-81
2023/08/07 11:01:29;;;;;;;2.97;1.10;;;;;;;;;;5039315;28;20038;-80
2023/08/07 11:03:59;;;;;;;1.75;1.20;;;;;;;;;;5012664;28;20042;-81
2023/08/07 11:06:27;;;;;;;2.72;1.20;;;;;;;;;;5018830;28;20041;-81
2023/08/07 11:08:53;;;;;;;2.30;1.30;;;;;;;;;;5018559;28;20165;-81
2023/08/07 11:11:19;;;;;;;2.35;1.25;;;;;;;;;;5019467;28;20490;-81
2023/08/07 11:13:45;;;;;;;2.97;1.10;;;;;;;;;;5015783;28;20042;-82
2023/08/07 11:16:11;;;;;;;2.10;1.20;;;;;;;;;;5017061;28;20137;-81
2023/08/07 11:18:40;;;;;;;3.08;1.33;;;;;;;;;;5051989;28;20034;-83
2023/08/07 11:21:06;;;;;;;1.75;1.17;;;;;;;;;;5023402;28;20510;-82
2023/08/07 11:23:32;;;;;;;1.80;1.20;;;;;;;;;;5021755;28;20052;-83
2023/08/07 11:25:57;;;;;;;2.03;1.20;;;;;;;;;;5037927;28;20046;-82
2023/08/07 11:28:24;;;;;;;3.58;1.20;;;;;;;;;;5023592;28;20540;-82
2023/08/07 11:30:51;;;;;;;1.52;1.00;;;;;;;;;;5027406;28;20038;-82
2023/08/07 11:33:20;;;;;;;1.38;1.10;;;;;;;;;;5024129;28;20029;-83
2023/08/07 11:35:50;;;;;;;1.60;1.00;;;;;;;;;;5038269;28;20038;-82
2023/08/07 11:38:45;;;;;;;1.65;0.98;;;;;;;;;;5015967;28;20034;-84
2023/08/07 11:41:12;;;;;;;2.58;1.10;;;;;;;;;;5014902;28;20076;-83
2023/08/07 11:43:38;;;;;;;2.30;1.10;;;;;;;;;;5015879;28;20038;-81
2023/08/07 11:46:06;;;;;;;2.90;1.00;;;;;;;;;;5011102;28;20045;-82
2023/08/07 11:48:35;;;;;;;2.67;1.00;;;;;;;;;;5008613;28;20088;-82
2023/08/07 11:51:01;;;;;;;1.30;0.90;;;;;;;;;;5010422;28;20030;-82
2023/08/07 11:53:32;;;;;;;1.92;0.90;;;;;;;;;;5012610;28;20037;-81
2023/08/07 11:56:00;;;;;;;1.95;1.10;;;;;;;;;;5017697;28;20038;-82
2023/08/07 11:58:27;;;;;;;2.17;0.98;;;;;;;;;;5025231;28;20041;-83
2023/08/07 12:00:54;;;;;;;1.98;1.00;;;;;;;;;;5024933;28;20037;-83
2023/08/07 12:03:38;;;;;;;1.30;0.95;;;;;;;;;;5026628;28;20065;-83
2023/08/07 12:06:04;;;;;;;;;;;;;;;;;;5026289;28;20037;-83
2023/08/07 12:08:37;;;;;;;2.15;1.00;;;;;;;;;;5022604;28;19969;-83
2023/08/07 12:11:07;;;;;;;2.42;0.90;;;;;;;;;;5017688;28;20042;-82
2023/08/07 12:13:35;;;;;;;2.65;0.98;;;;;;;;;;5023517;28;20033;-83
2023/08/07 12:16:02;;;;;;;1.08;0.93;;;;;;;;;;5019364;28;20037;-83
2023/08/07 12:18:28;;;;;;;2.80;1.00;;;;;;;;;;5018516;28;20044;-82
2023/08/07 12:20:59;;;;;;;7.10;3.45;;;;;;;;;;5018772;28;20038;-83
2023/08/07 12:23:25;;;;;;;1.13;0.80;;;;;;;;;;5020411;28;20046;-83
2023/08/07 12:25:52;;;;;;;1.58;0.98;;;;;;;;;;5023779;28;20041;-83
2023/08/07 12:28:18;;;;;;;1.67;0.80;;;;;;;;;;5022644;28;20045;-82
2023/08/07 12:30:48;;;;;;;0.73;0.70;;;;;;;;;;5024680;28;20076;-84
2023/08/07 12:33:14;;;;;;;1.20;0.95;;;;;;;;;;5025332;28;20060;-83
2023/08/07 12:35:41;;;;;;;2.63;0.80;;;;;;;;;;5017806;28;20061;-83
2023/08/07 12:38:08;;;;;;;1.05;0.70;;;;;;;;;;5013298;28;20477;-84
2023/08/07 12:40:36;;;;;;;2.08;0.70;;;;;;;;;;5037013;28;20044;-81
2023/08/07 12:43:02;;;;;;;0.73;0.70;;;;;;;;;;5020060;28;20042;-81
2023/08/07 12:45:27;;;;;;;0.70;0.52;;;;;;;;;;5021670;28;20046;-83
2023/08/07 12:47:53;;;;;;;1.10;0.77;;;;;;;;;;5015977;28;20050;-81
2023/08/07 12:50:18;;;;;;;0.75;0.70;;;;;;;;;;5029100;28;20657;-81
2023/08/07 12:52:44;;;;;;;1.75;0.80;;;;;;;;;;5017206;28;20060;-83
2023/08/07 12:55:11;;;;;;;2.55;0.70;;;;;;;;;;5020159;28;20090;-82
2023/08/07 12:57:37;;;;;;;1.08;0.70;;;;;;;;;;5023177;28;20037;-83
2023/08/07 13:00:04;;;;;;;1.10;0.70;;;;;;;;;;5011344;28;20057;-82
2023/08/07 13:02:32;;;;;;;0.60;0.60;;;;;;;;;;5024885;28;20034;-82
2023/08/07 13:04:58;;;;;;;0.55;0.55;;;;;;;;;;5025146;28;20088;-82
2023/08/07 13:07:24;;;;;;;1.15;0.77;;;;;;;;;;5024045;28;20034;-82
2023/08/07 13:09:50;;;;;;;1.13;0.70;;;;;;;;;;5012369;28;20038;-80
2023/08/07 13:12:16;;;;;;;0.75;0.60;;;;;;;;;;5010441;28;20065;-81
2023/08/07 13:14:41;;;;;;;1.23;0.95;;;;;;;;;;5014922;28;20038;-81
2023/08/07 13:17:07;;;;;;;0.65;0.60;;;;;;;;;;5012449;28;20552;-81
2023/08/07 13:19:32;;;;;;;0.98;0.90;;;;;;;;;;5006010;28;20113;-81
2023/08/07 13:21:58;;;;;;;0.95;0.60;;;;;;;;;;5012068;28;20041;-83
2023/08/07 13:24:23;;;;;;;1.05;0.80;;;;;;;;;;5019775;28;20481;-82
2023/08/07 13:26:49;;;;;;;1.27;0.80;;;;;;;;;;5013966;28;20041;-83
2023/08/07 13:29:14;;;;;;;0.85;0.60;;;;;;;;;;5015252;28;20026;-81
2023/08/07 13:31:46;;;;;;;1.27;0.80;;;;;;;;;;5017989;28;20501;-81
2023/08/07 13:34:12;;;;;;;1.42;0.90;;;;;;;;;;5013451;28;20331;-83
2023/08/07 13:36:38;;;;;;;1.23;0.80;;;;;;;;;;5032624;28;20037;-81
2023/08/07 13:39:06;;;;;;;2.47;0.80;;;;;;;;;;5027337;28;20038;-81
2023/08/07 13:41:32;;;;;;;3.30;0.90;;;;;;;;;;5013611;28;20056;-83
2023/08/07 13:43:58;;;;;;;2.40;0.90;;;;;;;;;;5009050;28;20128;-81
2023/08/07 13:46:24;;;;;;;1.20;0.80;;;;;;;;;;5018327;28;20026;-81
2023/08/07 13:48:50;;;;;;;1.33;0.77;;;;;;;;;;5013198;28;20132;-81
2023/08/07 13:51:16;;;;;;;0.60;0.60;;;;;;;;;;5010797;28;20112;-81
2023/08/07 13:53:42;;;;;;;1.10;1.00;;;;;;;;;;5009157;28;20066;-81
2023/08/07 13:56:08;;;;;;;1.40;0.88;;;;;;;;;;5004205;28;20034;-82
2023/08/07 13:58:34;;;;;;;3.88;1.30;;;;;;;;;;5011580;28;20073;-81
2023/08/07 14:01:00;;;;;;;1.25;0.80;;;;;;;;;;5016297;28;20046;-82
2023/08/07 14:03:25;;;;;;;1.95;1.20;;;;;;;;;;5020643;28;20038;-81
2023/08/07 14:05:51;;;;;;;0.85;0.80;;;;;;;;;;5018319;28;20041;-81
2023/08/07 14:08:17;;;;;;;2.03;1.00;;;;;;;;;;5022983;28;20100;-82
2023/08/07 14:10:42;;;;;;;3.60;1.00;;;;;;;;;;5025828;28;20029;-84
2023/08/07 14:13:09;;;;;;;2.67;1.00;;;;;;;;;;5024587;28;20049;-82
2023/08/07 14:15:35;;;;;;;1.40;0.95;;;;;;;;;;5016857;28;20042;-83
2023/08/07 14:18:01;;;;;;;2.20;1.20;;;;;;;;;;5012901;28;20073;-84
2023/08/07 14:20:26;;;;;;;1.90;1.23;;;;;;;;;;5018269;28;20034;-84
2023/08/07 14:22:52;;;;;;;4.88;2.17;;;;;;;;;;5015769;28;20121;-83
2023/08/07 14:25:17;;;;;;;6.32;1.70;;;;;;;;;;5020828;28;20069;-84
2023/08/07 14:27:43;;;;;;;2.60;1.65;;;;;;;;;;5020097;28;20040;-84
2023/08/07 14:30:09;;;;;;;1.60;1.17;;;;;;;;;;5022792;28;20030;-82
2023/08/07 14:32:35;;;;;;;1.80;1.30;;;;;;;;;;5025040;28;20041;-84
2023/08/07 14:35:00;;;;;;;1.20;1.05;;;;;;;;;;5037536;28;20037;-82
2023/08/07 14:37:26;;;;;;;2.40;1.10;;;;;;;;;;5023906;28;20046;-81
2023/08/07 14:39:51;;;;;;;1.40;0.90;;;;;;;;;;5023324;28;20030;-83